Time;durP1;ratioP1;P1;durP2;ratioP2;P2;SDS_P1;SDS_P2;PMS_P1;PMS_P2;Temp;Humidity;BMP_temperature;BMP_pressure;BME280_temperature;BME280_humidity;BME280_pressure;Samples;Min_cycle;Max_cycle;Signal;HPM_P1;HPM_P2
2023/01/10 00:00:51;;;;;;;18.73;2.22;;;5.50;99.90;;;;;;6074496;23;20538;-83
2023/01/10 00:03:17;;;;;;;21.27;2.55;;;5.50;99.90;;;;;;6099626;23;20041;-83
2023/01/10 00:05:43;;;;;;;18.10;2.92;;;5.50;99.90;;;;;;6097465;23;20037;-83
2023/01/10 00:08:14;;;;;;;15.77;2.42;;;5.50;99.90;;;;;;6075689;23;20025;-83
2023/01/10 00:10:40;;;;;;;21.20;3.75;;;5.50;99.90;;;;;;6099257;23;20010;-83
2023/01/10 00:13:23;;;;;;;16.58;2.08;;;5.50;99.90;;;;;;6075231;23;20927;-83
2023/01/10 00:15:55;;;;;;;26.27;3.50;;;5.50;99.90;;;;;;6097089;23;20021;-82
2023/01/10 00:18:21;;;;;;;16.15;2.72;;;5.40;99.90;;;;;;6075195;23;20010;-82
2023/01/10 00:20:48;;;;;;;12.60;2.45;;;5.40;99.90;;;;;;6099579;23;20014;-80
2023/01/10 00:23:14;;;;;;;21.05;2.83;;;5.40;99.90;;;;;;6098536;23;20018;-83
2023/01/10 00:25:41;;;;;;;24.55;2.65;;;5.40;99.90;;;;;;6097439;23;20041;-82
2023/01/10 00:28:18;;;;;;;20.48;2.97;;;5.40;99.90;;;;;;6099581;23;20017;-82
2023/01/10 00:30:54;;;;;;;18.45;2.28;;;5.40;99.90;;;;;;6098842;23;20716;-83
2023/01/10 00:33:20;;;;;;;14.65;2.63;;;5.40;99.90;;;;;;6100428;23;20124;-83
2023/01/10 00:35:47;;;;;;;22.67;2.78;;;5.40;99.90;;;;;;6096908;23;20455;-83
2023/01/10 00:38:13;;;;;;;12.32;3.08;;;5.40;99.90;;;;;;6100797;23;20137;-83
2023/01/10 00:40:39;;;;;;;19.52;2.10;;;5.40;99.90;;;;;;6074962;23;20609;-83
2023/01/10 00:46:09;;;;;;;26.27;2.38;;;5.50;99.90;;;;;;6037631;23;20030;-82
2023/01/10 00:48:35;;;;;;;20.25;3.28;;;5.50;99.90;;;;;;6040339;23;20023;-82
2023/01/10 00:51:01;;;;;;;23.98;2.85;;;5.50;99.90;;;;;;6060374;23;20077;-83
2023/01/10 00:53:27;;;;;;;25.60;3.55;;;5.50;99.90;;;;;;6098141;23;20018;-82
2023/01/10 00:55:53;;;;;;;26.67;3.83;;;5.60;99.90;;;;;;6098633;23;20029;-82
2023/01/10 00:58:19;;;;;;;14.80;2.85;;;5.60;99.90;;;;;;6098277;23;20068;-83
2023/01/10 01:00:45;;;;;;;22.00;3.33;;;5.60;99.90;;;;;;6100110;23;20445;-81
2023/01/10 01:03:12;;;;;;;22.30;4.05;;;5.70;99.90;;;;;;6098899;23;20014;-82
2023/01/10 01:05:42;;;;;;;16.15;3.00;;;5.70;99.90;;;;;;6098679;23;20018;-82
2023/01/10 01:08:09;;;;;;;22.77;4.90;;;5.70;99.90;;;;;;6099825;23;20514;-80
2023/01/10 01:10:35;;;;;;;19.83;2.50;;;5.70;99.90;;;;;;6098214;23;20025;-83
2023/01/10 01:13:27;;;;;;;19.30;2.63;;;5.70;99.90;;;;;;6074224;23;20018;-81
2023/01/10 01:15:56;;;;;;;18.60;3.22;;;5.70;99.90;;;;;;6091745;23;20072;-83
2023/01/10 01:18:21;;;;;;;17.30;2.65;;;5.80;99.90;;;;;;6097515;23;20564;-80
2023/01/10 01:20:51;;;;;;;16.73;2.25;;;5.80;99.90;;;;;;6073713;23;20022;-82
2023/01/10 01:23:17;;;;;;;17.05;2.95;;;5.80;99.90;;;;;;6098893;23;20077;-82
2023/01/10 01:25:42;;;;;;;21.58;3.13;;;5.90;99.90;;;;;;6072858;23;20014;-83
2023/01/10 01:28:11;;;;;;;14.40;2.78;;;5.90;99.90;;;;;;6075561;23;20083;-82
2023/01/10 01:30:37;;;;;;;13.48;2.20;;;5.90;99.90;;;;;;6097491;23;20028;-82
2023/01/10 01:33:03;;;;;;;13.07;2.42;;;6.00;99.90;;;;;;6074709;23;20286;-83
2023/01/10 01:35:28;;;;;;;17.92;3.15;;;6.00;99.90;;;;;;6074118;23;20124;-83
2023/01/10 01:37:54;;;;;;;15.23;2.33;;;6.00;99.90;;;;;;6099735;23;20017;-83
2023/01/10 01:40:21;;;;;;;16.30;3.72;;;5.90;99.90;;;;;;6097463;23;20018;-82
2023/01/10 01:42:48;;;;;;;14.75;2.70;;;5.90;99.90;;;;;;6098322;23;20067;-83
2023/01/10 01:45:13;;;;;;;10.88;1.67;;;5.90;99.90;;;;;;6073632;23;20017;-82
2023/01/10 01:47:59;;;;;;;19.00;3.03;;;5.90;99.90;;;;;;6098462;23;20010;-83
2023/01/10 01:50:38;;;;;;;17.48;3.25;;;5.90;99.90;;;;;;6098593;23;20447;-82
2023/01/10 01:53:10;;;;;;;16.58;2.53;;;5.80;99.90;;;;;;6074514;23;20077;-82
2023/01/10 01:55:37;;;;;;;19.27;3.20;;;5.80;99.90;;;;;;6097366;23;20014;-82
2023/01/10 01:58:07;;;;;;;14.32;2.67;;;5.80;99.90;;;;;;6097940;23;20387;-82
2023/01/10 02:00:34;;;;;;;18.75;3.20;;;5.80;99.90;;;;;;6094794;23;20116;-82
2023/01/10 02:03:01;;;;;;;16.85;3.45;;;5.70;99.90;;;;;;6096300;23;20061;-82
2023/01/10 02:05:27;;;;;;;25.83;3.85;;;5.70;99.90;;;;;;6095159;23;20014;-82
2023/01/10 02:07:55;;;;;;;17.23;3.33;;;5.70;99.90;;;;;;6094004;23;20010;-80
2023/01/10 02:10:51;;;;;;;13.98;2.08;;;5.70;99.90;;;;;;6096145;23;20117;-82
2023/01/10 02:13:19;;;;;;;24.53;2.87;;;5.70;99.90;;;;;;6074431;23;20105;-81
2023/01/10 02:15:44;;;;;;;18.10;3.78;;;5.60;99.90;;;;;;6096553;23;20096;-83
2023/01/10 02:18:10;;;;;;;18.92;2.35;;;5.60;99.90;;;;;;6097097;23;20042;-81
2023/01/10 02:20:59;;;;;;;13.55;2.25;;;5.60;99.90;;;;;;6098284;23;20076;-83
2023/01/10 02:23:53;;;;;;;22.00;3.75;;;5.60;99.90;;;;;;6097858;23;20064;-80
2023/01/10 02:26:48;;;;;;;17.25;2.78;;;5.60;99.90;;;;;;6044813;23;20010;-81
2023/01/10 02:29:17;;;;;;;18.77;2.08;;;5.70;99.90;;;;;;6098787;23;20463;-81
2023/01/10 02:32:00;;;;;;;16.40;3.08;;;5.60;99.90;;;;;;6098821;23;20418;-82
2023/01/10 02:34:50;;;;;;;16.58;2.47;;;5.60;99.90;;;;;;6097098;23;20021;-82
2023/01/10 02:37:50;;;;;;;19.33;3.55;;;5.60;99.90;;;;;;6074622;23;20080;-82
2023/01/10 02:40:30;;;;;;;13.23;2.47;;;5.50;99.90;;;;;;6098204;23;20018;-82
2023/01/10 02:43:13;;;;;;;17.60;2.85;;;5.50;99.90;;;;;;6097365;23;20013;-83
2023/01/10 02:45:42;;;;;;;18.23;3.67;;;5.50;99.90;;;;;;6097594;23;20010;-83
2023/01/10 02:48:08;;;;;;;17.98;2.60;;;5.60;99.90;;;;;;6098495;23;20021;-81
2023/01/10 02:50:43;;;;;;;20.42;2.97;;;5.50;99.90;;;;;;6074350;23;20014;-82
2023/01/10 02:53:18;;;;;;;18.30;2.53;;;5.50;99.90;;;;;;6098788;23;20080;-82
2023/01/10 02:55:55;;;;;;;24.13;3.53;;;5.60;99.90;;;;;;6097124;23;20241;-82
2023/01/10 02:58:41;;;;;;;19.73;2.75;;;5.60;99.90;;;;;;6097439;23;20010;-83
2023/01/10 03:01:38;;;;;;;17.55;2.17;;;5.50;99.90;;;;;;6098150;23;20025;-83
2023/01/10 03:04:16;;;;;;;21.70;3.75;;;5.60;99.90;;;;;;6073380;23;20022;-81
2023/01/10 03:06:58;;;;;;;24.23;3.38;;;5.60;99.90;;;;;;6097549;23;20097;-81
2023/01/10 03:09:47;;;;;;;19.65;3.85;;;5.70;99.90;;;;;;6097849;23;20020;-83
2023/01/10 03:12:29;;;;;;;17.63;2.80;;;5.70;99.90;;;;;;6075017;23;20104;-83
2023/01/10 03:14:56;;;;;;;18.10;3.97;;;5.70;99.90;;;;;;6097586;23;20374;-83
2023/01/10 03:17:24;;;;;;;18.85;3.42;;;5.70;99.90;;;;;;6097754;23;20025;-83
2023/01/10 03:19:55;;;;;;;20.05;2.97;;;5.80;99.90;;;;;;6098210;23;20046;-83
2023/01/10 03:22:23;;;;;;;19.60;3.05;;;5.80;99.90;;;;;;6101069;23;20057;-83
2023/01/10 03:24:51;;;;;;;17.73;2.40;;;5.80;99.90;;;;;;6100122;23;20041;-81
2023/01/10 03:27:32;;;;;;;16.77;2.47;;;5.80;99.90;;;;;;6098150;23;20009;-82
2023/01/10 03:30:27;;;;;;;19.00;3.63;;;5.80;99.90;;;;;;6098657;23;20065;-82
2023/01/10 03:32:55;;;;;;;20.13;3.20;;;5.80;99.90;;;;;;6099418;23;20046;-83
2023/01/10 03:35:24;;;;;;;16.50;3.88;;;5.80;99.90;;;;;;6098132;23;20041;-83
2023/01/10 03:38:05;;;;;;;16.73;3.13;;;5.70;99.90;;;;;;6099482;23;20029;-83
2023/01/10 03:40:40;;;;;;;21.45;3.67;;;5.70;99.90;;;;;;6098026;23;20304;-83
2023/01/10 03:46:10;;;;;;;21.27;2.92;;;5.80;99.90;;;;;;6099576;23;20145;-82
2023/01/10 03:48:40;;;;;;;16.50;2.22;;;5.70;99.90;;;;;;6098337;23;20018;-83
2023/01/10 03:51:07;;;;;;;17.40;3.28;;;5.80;99.90;;;;;;6098236;23;20029;-83
2023/01/10 03:53:33;;;;;;;17.23;3.08;;;5.80;99.90;;;;;;6099027;23;20053;-83
2023/01/10 03:55:59;;;;;;;22.75;3.10;;;5.80;99.90;;;;;;6098824;23;20021;-83
2023/01/10 03:58:27;;;;;;;25.95;3.38;;;5.80;99.90;;;;;;6099200;23;20077;-83
2023/01/10 04:00:52;;;;;;;24.75;3.70;;;5.90;99.90;;;;;;6099437;23;20526;-83
2023/01/10 04:03:18;;;;;;;26.00;3.65;;;5.90;99.90;;;;;;6076417;23;20049;-83
2023/01/10 04:05:43;;;;;;;21.08;2.50;;;5.90;99.90;;;;;;6075429;23;20024;-83
2023/01/10 04:08:09;;;;;;;14.90;2.85;;;5.90;99.90;;;;;;6101076;23;20018;-83
2023/01/10 04:10:36;;;;;;;16.38;2.55;;;5.90;99.90;;;;;;6099553;23;20098;-82
2023/01/10 04:13:02;;;;;;;18.52;3.55;;;5.80;99.90;;;;;;6075536;23;20068;-82
2023/01/10 04:15:28;;;;;;;14.13;2.72;;;5.90;99.90;;;;;;6098536;23;20010;-83
2023/01/10 04:17:55;;;;;;;18.10;2.97;;;5.90;99.90;;;;;;6073471;23;20091;-83
2023/01/10 04:20:21;;;;;;;21.27;3.72;;;5.90;99.90;;;;;;6069863;23;20018;-83
2023/01/10 04:22:48;;;;;;;17.85;4.32;;;5.90;99.90;;;;;;6096354;23;20067;-82
2023/01/10 04:25:15;;;;;;;18.08;3.40;;;5.90;99.90;;;;;;6073178;23;20020;-83
2023/01/10 04:27:40;;;;;;;19.23;3.03;;;6.00;99.90;;;;;;6100194;23;20010;-83
2023/01/10 04:30:08;;;;;;;15.60;3.40;;;6.10;99.90;;;;;;6073560;23;20026;-83
2023/01/10 04:32:34;;;;;;;16.75;3.05;;;6.10;99.90;;;;;;6098502;23;20033;-83
2023/01/10 04:34:59;;;;;;;18.08;2.25;;;6.10;99.90;;;;;;6074447;23;20018;-82
2023/01/10 04:37:25;;;;;;;15.38;2.60;;;6.00;99.90;;;;;;6075573;23;20022;-83
2023/01/10 04:39:51;;;;;;;24.48;3.33;;;6.10;99.90;;;;;;6097541;23;20013;-82
2023/01/10 04:42:16;;;;;;;18.63;3.13;;;6.10;99.90;;;;;;6076383;23;20470;-82
2023/01/10 04:44:42;;;;;;;22.70;4.55;;;6.10;99.90;;;;;;6075500;23;20017;-81
2023/01/10 04:47:08;;;;;;;25.95;5.35;;;6.10;99.90;;;;;;6074147;23;20350;-81
2023/01/10 04:49:33;;;;;;;26.50;4.25;;;6.10;99.90;;;;;;6098693;23;20422;-83
2023/01/10 04:51:59;;;;;;;19.13;3.90;;;6.10;99.90;;;;;;6099536;23;20041;-83
2023/01/10 04:54:24;;;;;;;25.58;4.47;;;6.10;99.90;;;;;;6073658;23;20045;-83
2023/01/10 04:56:50;;;;;;;21.30;3.83;;;6.10;99.90;;;;;;6075929;23;20018;-81
2023/01/10 04:59:16;;;;;;;21.95;4.28;;;6.10;99.90;;;;;;6098874;23;20091;-81
2023/01/10 05:01:42;;;;;;;23.73;4.88;;;6.10;99.90;;;;;;6075415;23;20514;-83
2023/01/10 05:04:08;;;;;;;24.80;4.38;;;6.10;99.90;;;;;;6072755;23;20048;-82
2023/01/10 05:06:34;;;;;;;15.77;3.13;;;6.00;99.90;;;;;;6097338;23;20011;-82
2023/01/10 05:08:59;;;;;;;25.30;4.50;;;6.10;99.90;;;;;;6097898;23;20513;-82
2023/01/10 05:11:25;;;;;;;22.70;4.38;;;6.00;99.90;;;;;;6069953;23;20024;-82
2023/01/10 05:13:50;;;;;;;18.77;4.25;;;6.00;99.90;;;;;;6070320;23;20554;-82
2023/01/10 05:16:16;;;;;;;21.55;4.10;;;6.00;99.90;;;;;;6073454;23;20014;-83
2023/01/10 05:18:42;;;;;;;22.80;3.97;;;6.00;99.90;;;;;;6070522;23;20018;-83
2023/01/10 05:21:14;;;;;;;21.98;3.53;;;6.00;99.90;;;;;;6074126;23;20041;-84
2023/01/10 05:23:39;;;;;;;23.10;3.83;;;6.00;99.90;;;;;;6073796;23;20017;-83
2023/01/10 05:26:17;;;;;;;28.45;4.18;;;5.90;99.90;;;;;;6071430;23;20017;-83
2023/01/10 05:28:42;;;;;;;23.67;3.60;;;6.00;99.90;;;;;;6097753;23;20081;-84
2023/01/10 05:31:18;;;;;;;19.92;3.53;;;6.00;99.90;;;;;;6073038;23;20014;-83
2023/01/10 05:33:50;;;;;;;24.42;3.55;;;6.00;99.90;;;;;;6073143;23;20018;-83
2023/01/10 05:36:17;;;;;;;27.85;4.70;;;5.90;99.90;;;;;;6099975;23;20022;-84
2023/01/10 05:38:43;;;;;;;24.05;3.85;;;6.00;99.90;;;;;;6101859;23;20022;-82
2023/01/10 05:41:13;;;;;;;22.95;3.65;;;6.00;99.90;;;;;;6071812;23;20025;-86
2023/01/10 05:43:40;;;;;;;27.45;4.20;;;5.20;99.90;;;;;;6092486;23;20018;-85
2023/01/10 05:46:09;;;;;;;25.90;3.95;;;6.00;99.90;;;;;;6092885;23;20023;-85
2023/01/10 05:48:35;;;;;;;26.73;5.25;;;6.10;99.90;;;;;;6094268;23;20022;-85
2023/01/10 05:51:51;;;;;;;21.20;3.20;;;6.00;99.90;;;;;;6073715;23;20059;-85
2023/01/10 05:54:28;;;;;;;29.13;4.28;;;6.10;99.90;;;;;;6123448;23;20053;-86
2023/01/10 05:57:01;;;;;;;24.35;4.15;;;6.20;99.90;;;;;;6098012;23;20018;-84
2023/01/10 05:59:34;;;;;;;27.80;4.07;;;6.20;99.90;;;;;;6072009;23;20013;-84
2023/01/10 06:02:00;;;;;;;24.80;4.50;;;6.20;99.90;;;;;;6099402;23;20355;-85
2023/01/10 06:04:29;;;;;;;21.88;4.45;;;6.20;99.90;;;;;;6072636;23;20355;-84
2023/01/10 06:06:55;;;;;;;21.08;3.90;;;6.20;99.90;;;;;;6075038;23;20038;-86
2023/01/10 06:09:21;;;;;;;13.82;3.03;;;6.20;99.90;;;;;;6076791;23;20018;-85
2023/01/10 06:11:46;;;;;;;14.85;2.60;;;6.20;99.90;;;;;;6100605;23;20017;-86
2023/01/10 06:14:12;;;;;;;18.05;2.38;;;6.20;99.90;;;;;;6095898;23;20025;-80
2023/01/10 06:16:37;;;;;;;9.35;1.45;;;6.30;99.90;;;;;;6122040;23;20025;-83
2023/01/10 06:19:03;;;;;;;12.27;2.60;;;6.30;99.90;;;;;;6096649;23;20068;-83
2023/01/10 06:21:29;;;;;;;13.00;2.33;;;6.30;99.90;;;;;;6098134;23;20014;-83
2023/01/10 06:23:54;;;;;;;13.35;2.08;;;6.30;99.90;;;;;;6071928;23;20441;-84
2023/01/10 06:26:20;;;;;;;12.38;3.22;;;6.30;99.90;;;;;;6073073;23;20010;-84
2023/01/10 06:28:45;;;;;;;27.13;5.80;;;6.30;99.90;;;;;;6075305;23;20018;-83
2023/01/10 06:31:13;;;;;;;29.77;6.22;;;7.20;99.90;;;;;;6074169;23;20372;-84
2023/01/10 06:33:42;;;;;;;29.48;5.50;;;6.30;99.90;;;;;;6072514;23;20013;-86
2023/01/10 06:36:08;;;;;;;29.35;4.72;;;6.30;99.90;;;;;;6047100;23;20089;-85
2023/01/10 06:38:34;;;;;;;22.80;4.22;;;6.30;99.90;;;;;;6095695;23;20072;-85
2023/01/10 06:41:11;;;;;;;29.50;5.00;;;6.20;99.90;;;;;;6072752;23;20024;-84
2023/01/10 06:44:02;;;;;;;25.85;4.75;;;6.20;99.90;;;;;;6070690;23;20013;-84
2023/01/10 06:46:27;;;;;;;25.80;4.80;;;6.10;99.90;;;;;;6071371;23;20085;-84
2023/01/10 06:48:53;;;;;;;30.35;4.90;;;6.10;99.90;;;;;;6068173;23;20049;-84
2023/01/10 06:51:18;;;;;;;30.58;4.95;;;6.10;99.90;;;;;;6070004;23;20514;-83
2023/01/10 06:53:44;;;;;;;30.02;5.43;;;6.00;99.90;;;;;;6069765;23;20135;-83
2023/01/10 06:56:16;;;;;;;20.25;4.75;;;5.90;99.90;;;;;;6071447;23;20024;-85
2023/01/10 06:58:42;;;;;;;34.40;5.63;;;5.90;99.90;;;;;;6022094;23;20086;-85
2023/01/10 07:01:15;;;;;;;23.45;4.32;;;6.10;99.90;;;;;;6065334;23;20045;-84
2023/01/10 07:03:41;;;;;;;25.65;4.28;;;5.80;99.90;;;;;;6092545;23;20014;-84
2023/01/10 07:06:10;;;;;;;20.45;3.95;;;5.80;99.90;;;;;;6068382;23;20014;-84
2023/01/10 07:08:42;;;;;;;33.42;5.45;;;5.70;99.90;;;;;;6093084;23;20506;-84
2023/01/10 07:11:08;;;;;;;28.13;4.88;;;5.70;99.90;;;;;;6090723;23;20058;-84
2023/01/10 07:13:34;;;;;;;25.05;4.60;;;5.70;99.90;;;;;;6093430;23;20497;-84
2023/01/10 07:16:05;;;;;;;33.92;4.78;;;5.70;99.90;;;;;;6093229;23;20022;-81
2023/01/10 07:18:31;;;;;;;25.50;5.15;;;5.70;99.90;;;;;;6092403;23;20068;-82
2023/01/10 07:20:56;;;;;;;20.33;3.60;;;5.70;99.90;;;;;;6093404;23;20010;-84
2023/01/10 07:23:22;;;;;;;23.58;5.30;;;5.80;99.90;;;;;;6092506;23;20105;-83
2023/01/10 07:25:48;;;;;;;25.50;4.30;;;5.60;99.90;;;;;;6066738;23;20018;-83
2023/01/10 07:28:13;;;;;;;22.77;3.92;;;5.70;99.90;;;;;;6093463;23;20025;-82
2023/01/10 07:30:39;;;;;;;29.35;4.80;;;5.70;99.90;;;;;;6068991;23;20498;-85
2023/01/10 07:33:05;;;;;;;19.58;3.88;;;5.70;99.90;;;;;;6070510;23;20040;-84
2023/01/10 07:35:31;;;;;;;32.53;6.45;;;5.70;99.90;;;;;;6067314;23;20018;-82
2023/01/10 07:38:01;;;;;;;24.08;4.35;;;5.70;99.90;;;;;;6092955;23;20014;-84
2023/01/10 07:40:27;;;;;;;34.78;5.15;;;5.70;99.90;;;;;;6068684;23;20068;-84
2023/01/10 07:42:57;;;;;;;25.73;4.68;;;5.70;99.90;;;;;;6068914;23;20783;-85
2023/01/10 07:45:23;;;;;;;26.75;5.50;;;5.80;99.90;;;;;;6091871;23;20224;-85
2023/01/10 07:47:49;;;;;;;28.05;6.18;;;5.80;99.90;;;;;;6092571;23;20096;-85
2023/01/10 07:50:16;;;;;;;21.35;4.65;;;5.80;99.90;;;;;;6067382;23;20041;-85
2023/01/10 07:52:41;;;;;;;24.02;4.47;;;5.80;99.90;;;;;;6092572;23;20043;-85
2023/01/10 07:55:08;;;;;;;32.60;5.25;;;5.80;99.90;;;;;;6089041;23;20063;-85
2023/01/10 07:57:33;;;;;;;25.27;4.72;;;5.80;99.90;;;;;;6118607;23;20014;-85
2023/01/10 07:59:59;;;;;;;32.15;6.15;;;5.80;99.90;;;;;;6068672;23;20010;-84
2023/01/10 08:02:25;;;;;;;28.02;5.13;;;5.90;99.90;;;;;;6114773;23;20060;-84
2023/01/10 08:04:50;;;;;;;22.30;5.65;;;5.80;99.90;;;;;;6094660;23;20084;-84
2023/01/10 08:07:16;;;;;;;30.65;5.00;;;5.80;99.90;;;;;;6121402;23;20021;-84
2023/01/10 08:09:41;;;;;;;23.15;4.50;;;5.80;99.90;;;;;;6093748;23;20021;-85
2023/01/10 08:12:07;;;;;;;32.22;5.28;;;5.90;99.90;;;;;;6073125;23;20459;-85
2023/01/10 08:14:45;;;;;;;24.90;4.30;;;6.60;99.90;;;;;;6072151;23;20018;-85
2023/01/10 08:17:10;;;;;;;26.65;4.60;;;5.90;99.90;;;;;;6072542;23;20021;-84
2023/01/10 08:19:36;;;;;;;21.15;4.07;;;5.90;99.90;;;;;;6072373;23;20014;-84
2023/01/10 08:22:02;;;;;;;26.70;5.28;;;5.90;99.90;;;;;;6073538;23;20010;-84
2023/01/10 08:24:32;;;;;;;23.73;4.47;;;5.90;99.90;;;;;;6071416;23;20006;-84
2023/01/10 08:27:21;;;;;;;28.48;4.75;;;5.90;99.90;;;;;;6072434;23;20819;-84
2023/01/10 08:29:47;;;;;;;29.13;5.50;;;5.90;99.90;;;;;;6095967;23;20021;-85
2023/01/10 08:32:26;;;;;;;31.35;4.53;;;6.00;99.90;;;;;;6072971;23;20014;-84
2023/01/10 08:34:52;;;;;;;21.15;3.88;;;6.00;99.90;;;;;;6109419;23;20046;-85
2023/01/10 08:37:18;;;;;;;28.75;5.00;;;6.00;99.90;;;;;;6072237;23;20029;-85
2023/01/10 08:39:43;;;;;;;29.88;6.80;;;6.00;99.90;;;;;;6070929;23;20013;-85
2023/01/10 08:42:09;;;;;;;28.10;4.50;;;6.00;99.90;;;;;;6072942;23;20096;-85
2023/01/10 08:44:34;;;;;;;24.33;4.82;;;6.10;99.90;;;;;;6071657;23;20045;-84
2023/01/10 08:47:00;;;;;;;20.48;3.70;;;6.10;99.90;;;;;;6072792;23;20010;-84
2023/01/10 08:49:26;;;;;;;27.55;5.00;;;6.10;99.90;;;;;;6070502;23;20018;-85
2023/01/10 08:51:51;;;;;;;26.92;5.38;;;6.20;99.90;;;;;;6071683;23;20185;-85
2023/01/10 08:58:38;;;;;;;22.63;4.45;;;6.10;99.90;;;;;;6096396;23;20416;-85
2023/01/10 09:01:38;;;;;;;27.70;5.75;;;6.20;99.90;;;;;;6118732;23;20029;-85
2023/01/10 09:04:10;;;;;;;23.30;4.18;;;6.20;99.90;;;;;;6096183;23;20014;-85
2023/01/10 09:06:36;;;;;;;26.33;4.05;;;6.10;99.90;;;;;;6094908;23;20013;-85
2023/01/10 09:09:10;;;;;;;25.15;4.35;;;6.20;99.90;;;;;;6119690;23;20049;-85
2023/01/10 09:11:35;;;;;;;26.30;4.95;;;6.20;99.90;;;;;;6073115;23;20021;-84
2023/01/10 09:14:01;;;;;;;29.73;4.72;;;6.20;99.90;;;;;;6071646;23;20514;-85
2023/01/10 09:16:43;;;;;;;25.90;4.07;;;7.10;99.90;;;;;;6071387;23;20635;-85
2023/01/10 09:19:15;;;;;;;25.27;4.35;;;6.30;99.90;;;;;;6070879;23;20077;-85
2023/01/10 09:22:05;;;;;;;23.55;4.82;;;6.40;99.90;;;;;;6096214;23;20018;-84
2023/01/10 09:24:31;;;;;;;21.13;4.70;;;6.40;99.90;;;;;;6069992;23;20020;-85
2023/01/10 09:30:39;;;;;;;26.00;5.13;;;6.50;99.90;;;;;;6005698;23;20451;-84
2023/01/10 09:37:38;;;;;;;26.83;4.38;;;6.50;99.90;;;;;;6030904;23;20069;-84
2023/01/10 09:41:12;;;;;;;27.20;5.85;;;6.50;99.90;;;;;;5868884;24;20029;-85
2023/01/10 09:43:49;;;;;;;29.02;4.72;;;6.70;99.90;;;;;;5869553;24;20085;-84
2023/01/10 09:46:56;;;;;;;27.20;5.80;;;6.70;99.90;;;;;;5921414;24;20119;-85
2023/01/10 09:50:02;;;;;;;28.65;4.93;;;6.80;99.90;;;;;;6054976;23;20018;-84
2023/01/10 09:56:00;;;;;;;28.77;4.40;;;7.10;99.90;;;;;;6048836;23;20334;-84
2023/01/10 09:58:31;;;;;;;24.00;4.65;;;7.40;99.90;;;;;;6047679;23;20018;-85
2023/01/10 10:01:40;;;;;;;21.25;3.90;;;7.00;99.90;;;;;;6047753;23;20459;-85
2023/01/10 10:04:53;;;;;;;25.95;4.70;;;7.00;99.90;;;;;;5927710;24;20020;-85
2023/01/10 10:08:34;;;;;;;29.17;4.07;;;7.10;99.90;;;;;;6121839;23;20084;-85
2023/01/10 10:11:54;;;;;;;26.83;4.18;;;7.10;99.90;;;;;;6011149;23;20405;-84
2023/01/10 10:15:02;;;;;;;24.27;4.20;;;7.10;99.90;;;;;;6059787;23;20605;-85
2023/01/10 10:18:09;;;;;;;25.25;5.05;;;7.20;99.90;;;;;;6094985;23;20018;-85
2023/01/10 10:21:25;;;;;;;26.13;5.10;;;7.20;99.90;;;;;;6091850;23;20651;-84
2023/01/10 10:24:46;;;;;;;26.08;5.55;;;7.40;99.90;;;;;;5973104;23;20085;-83
2023/01/10 10:27:48;;;;;;;24.10;5.07;;;7.30;99.90;;;;;;6026444;23;20014;-85
2023/01/10 10:34:45;;;;;;;25.35;5.20;;;7.30;99.90;;;;;;6122705;23;20044;-85
2023/01/10 10:42:25;;;;;;;25.60;5.18;;;7.30;99.90;;;;;;6052746;23;20033;-86
2023/01/10 10:49:50;;;;;;;30.35;6.00;;;7.40;99.90;;;;;;6123291;23;20041;-85
2023/01/10 10:53:02;;;;;;;33.13;7.38;;;7.20;99.90;;;;;;6031551;23;20331;-85
2023/01/10 11:00:11;;;;;;;25.15;5.88;;;7.20;99.90;;;;;;6026059;23;20031;-85
2023/01/10 11:03:18;;;;;;;31.80;8.27;;;7.20;99.90;;;;;;6013910;23;20018;-84
2023/01/10 11:06:25;;;;;;;27.52;7.05;;;7.20;99.90;;;;;;6047833;23;20410;-85
2023/01/10 11:09:00;;;;;;;30.67;7.28;;;7.20;99.90;;;;;;6097814;23;20022;-85
2023/01/10 11:15:57;;;;;;;29.73;8.15;;;7.20;99.90;;;;;;6122554;23;20024;-84
2023/01/10 11:19:20;;;;;;;27.60;7.72;;;7.20;99.90;;;;;;6117905;23;20069;-85
2023/01/10 11:23:06;;;;;;;30.73;8.43;;;7.20;99.90;;;;;;6062170;23;20435;-84
2023/01/10 11:26:22;;;;;;;31.83;7.18;;;7.20;99.90;;;;;;6053724;23;20039;-84
2023/01/10 11:29:03;;;;;;;29.17;7.68;;;7.20;99.90;;;;;;6095271;23;20018;-84
2023/01/10 11:32:20;;;;;;;28.50;6.28;;;7.20;99.90;;;;;;6101201;23;20020;-85
2023/01/10 12:01:03;;;;;;;24.58;5.38;;;7.10;99.90;;;;;;5798758;24;20109;-85
2023/01/10 12:03:31;;;;;;;26.13;5.97;;;7.10;99.90;;;;;;5879954;23;20136;-84
2023/01/10 12:06:14;;;;;;;21.05;5.32;;;7.10;99.90;;;;;;6120817;23;20010;-84
2023/01/10 12:08:43;;;;;;;29.38;6.25;;;7.10;99.90;;;;;;6097174;23;20089;-85
2023/01/10 12:11:12;;;;;;;32.05;7.05;;;7.10;99.90;;;;;;6122897;23;20727;-85
2023/01/10 12:13:47;;;;;;;25.90;6.60;;;7.00;99.90;;;;;;6096974;23;20041;-84
2023/01/10 12:16:34;;;;;;;28.58;6.72;;;7.20;99.90;;;;;;6122557;23;20038;-85
2023/01/10 12:19:06;;;;;;;18.95;4.97;;;7.00;99.90;;;;;;6071284;23;20620;-85
2023/01/10 12:21:43;;;;;;;23.73;5.47;;;7.00;99.90;;;;;;6121162;23;20010;-84
2023/01/10 12:24:23;;;;;;;26.67;5.32;;;7.00;99.90;;;;;;6096160;23;20363;-85
2023/01/10 12:26:52;;;;;;;26.45;5.50;;;7.00;99.90;;;;;;6122769;23;20024;-85
2023/01/10 12:29:23;;;;;;;23.40;5.72;;;7.00;99.90;;;;;;6096121;23;20052;-84
2023/01/10 12:31:51;;;;;;;24.45;5.03;;;7.00;99.90;;;;;;6070899;23;20069;-85
2023/01/10 12:34:21;;;;;;;21.83;4.63;;;7.00;99.90;;;;;;6071110;23;20049;-85
2023/01/10 12:37:17;;;;;;;23.13;5.93;;;7.20;99.90;;;;;;6120691;23;20451;-84
2023/01/10 12:40:10;;;;;;;23.90;4.93;;;7.00;99.90;;;;;;6070592;23;20112;-83
2023/01/10 12:46:20;;;;;;;27.57;6.73;;;7.00;99.90;;;;;;6095116;23;20018;-84
2023/01/10 12:49:45;;;;;;;25.65;6.07;;;6.90;99.90;;;;;;6057902;23;20022;-84
2023/01/10 12:52:44;;;;;;;24.63;4.20;;;7.00;99.90;;;;;;6077115;23;20424;-85
2023/01/10 12:55:21;;;;;;;24.65;5.32;;;6.90;99.90;;;;;;6093921;23;20018;-85
2023/01/10 12:58:20;;;;;;;26.50;5.53;;;6.90;99.90;;;;;;6096043;23;20026;-85
2023/01/10 13:00:52;;;;;;;29.15;6.05;;;6.90;99.90;;;;;;6067878;23;20022;-85
2023/01/10 13:03:20;;;;;;;21.08;5.05;;;6.90;99.90;;;;;;6094683;23;20010;-84
2023/01/10 13:06:17;;;;;;;24.35;5.25;;;6.90;99.90;;;;;;6095439;23;20126;-85
2023/01/10 13:09:27;;;;;;;24.08;5.43;;;6.90;99.90;;;;;;6094220;23;20073;-84
2023/01/10 13:12:22;;;;;;;21.27;5.47;;;6.90;99.90;;;;;;6073286;23;20014;-85
2023/01/10 13:19:20;;;;;;;24.60;5.80;;;6.80;99.90;;;;;;5975652;24;20031;-84
2023/01/10 13:22:25;;;;;;;23.10;4.68;;;6.80;99.90;;;;;;6034863;23;20386;-85
2023/01/10 13:28:30;;;;;;;22.70;5.38;;;6.80;99.90;;;;;;6099850;23;20037;-85
2023/01/10 13:35:15;;;;;;;32.13;5.22;;;6.80;99.90;;;;;;6093419;23;20072;-86
2023/01/10 13:37:41;;;;;;;25.83;5.10;;;6.70;99.90;;;;;;6096139;23;20029;-85
2023/01/10 13:40:16;;;;;;;29.67;7.43;;;6.70;99.90;;;;;;6094325;23;20018;-85
2023/01/10 13:45:28;;;;;;;25.35;5.90;;;6.70;99.90;;;;;;6094841;23;20117;-85
2023/01/10 13:48:02;;;;;;;23.63;5.40;;;6.60;99.90;;;;;;6094453;23;20097;-85
2023/01/10 13:50:45;;;;;;;23.77;5.55;;;6.60;99.90;;;;;;6094777;23;20017;-85
2023/01/10 13:55:15;;;;;;;23.88;4.15;;;6.60;99.90;;;;;;6132522;23;20125;-85
2023/01/10 14:05:02;;;;;;;28.08;5.25;;;6.50;99.90;;;;;;6119869;23;20092;-86
2023/01/10 14:07:39;;;;;;;24.88;4.50;;;6.50;99.90;;;;;;6094700;23;20045;-85
2023/01/10 14:13:53;;;;;;;24.05;3.97;;;6.50;99.90;;;;;;6118642;23;20450;-85
2023/01/10 14:16:41;;;;;;;22.95;5.65;;;6.60;99.90;;;;;;6095312;23;20320;-85
2023/01/10 14:20:14;;;;;;;22.55;4.82;;;6.60;99.90;;;;;;6098672;23;20053;-84
2023/01/10 14:23:16;;;;;;;25.08;4.95;;;6.60;99.90;;;;;;6094686;23;20105;-85
2023/01/10 14:25:43;;;;;;;17.95;4.22;;;6.60;99.90;;;;;;6094506;23;20447;-85
2023/01/10 14:32:13;;;;;;;21.13;4.80;;;6.60;99.90;;;;;;5975306;24;20036;-85
2023/01/10 14:34:43;;;;;;;24.17;5.35;;;6.60;99.90;;;;;;5988344;23;20084;-84
2023/01/10 14:37:30;;;;;;;19.85;4.55;;;6.50;99.90;;;;;;6093400;23;20056;-85
2023/01/10 14:39:57;;;;;;;21.98;5.25;;;6.70;99.90;;;;;;6094363;23;20096;-85
2023/01/10 14:42:26;;;;;;;27.83;4.97;;;6.60;99.90;;;;;;6095726;23;20017;-84
2023/01/10 14:45:38;;;;;;;20.45;4.18;;;6.60;99.90;;;;;;6093335;23;20014;-84
2023/01/10 14:48:46;;;;;;;23.85;4.88;;;6.60;99.90;;;;;;6078882;23;20021;-84
2023/01/10 14:52:34;;;;;;;20.67;3.65;;;6.70;99.90;;;;;;5974552;24;20020;-84
2023/01/10 14:56:24;;;;;;;24.73;4.22;;;6.60;99.90;;;;;;5862517;23;20025;-85
2023/01/10 14:59:29;;;;;;;17.90;3.58;;;6.60;99.90;;;;;;5977314;23;20059;-86
2023/01/10 15:02:34;;;;;;;25.10;4.18;;;6.60;99.90;;;;;;5965720;23;20028;-86
2023/01/10 15:05:08;;;;;;;23.63;4.90;;;6.60;99.90;;;;;;5934922;23;20020;-85
2023/01/10 15:07:44;;;;;;;27.38;5.30;;;6.60;99.90;;;;;;6051714;23;20022;-85
2023/01/10 15:10:20;;;;;;;22.55;5.90;;;6.60;99.90;;;;;;6092130;23;20402;-85
2023/01/10 15:12:50;;;;;;;20.80;4.85;;;6.60;99.90;;;;;;6094970;23;20056;-84
2023/01/10 15:15:32;;;;;;;26.95;5.15;;;6.60;99.90;;;;;;6093713;23;20014;-86
2023/01/10 15:18:46;;;;;;;19.30;4.03;;;6.10;99.90;;;;;;6096708;23;20006;-86